Time;durP1;ratioP1;P1;durP2;ratioP2;P2;SDS_P1;SDS_P2;PMS_P1;PMS_P2;Temp;Humidity;BMP_temperature;BMP_pressure;BME280_temperature;BME280_humidity;BME280_pressure;Samples;Min_cycle;Max_cycle;Signal;HPM_P1;HPM_P2
2022/04/05 00:01:24;;;;;;;6.88;4.05;;;7.80;87.40;;;;;;5076254;28;20461;-77
2022/04/05 00:03:49;;;;;;;6.47;4.38;;;7.80;87.30;;;;;;5059250;28;20133;-77
2022/04/05 00:06:15;;;;;;;5.53;3.90;;;7.80;87.30;;;;;;5076346;28;20583;-78
2022/04/05 00:08:41;;;;;;;5.38;3.67;;;7.80;87.70;;;;;;5059092;28;20542;-77
2022/04/05 00:11:06;;;;;;;7.45;3.60;;;7.80;87.80;;;;;;5076874;28;20035;-76
2022/04/05 00:13:32;;;;;;;6.70;3.97;;;7.80;87.60;;;;;;5058195;28;20449;-77
2022/04/05 00:15:57;;;;;;;8.80;4.40;;;7.80;87.80;;;;;;5058514;28;20032;-77
2022/04/05 00:18:23;;;;;;;7.33;4.30;;;7.80;88.00;;;;;;5058301;28;20031;-77
2022/04/05 00:20:49;;;;;;;8.20;4.00;;;7.80;87.80;;;;;;5076542;28;20402;-77
2022/04/05 00:23:15;;;;;;;5.97;3.60;;;7.80;87.80;;;;;;5058306;28;20519;-79
2022/04/05 00:25:41;;;;;;;6.27;3.70;;;7.80;88.30;;;;;;5058697;28;20535;-77
2022/04/05 00:28:06;;;;;;;6.97;4.03;;;7.80;87.60;;;;;;5058563;28;20036;-77
2022/04/05 00:30:32;;;;;;;5.15;3.97;;;7.80;87.40;;;;;;5057988;28;20021;-76
2022/04/05 00:32:58;;;;;;;6.07;4.07;;;7.80;87.20;;;;;;5058453;28;20016;-77
2022/04/05 00:35:23;;;;;;;6.53;3.80;;;7.80;87.70;;;;;;5058180;28;20020;-77
2022/04/05 00:37:49;;;;;;;6.90;4.07;;;7.80;88.00;;;;;;5058577;28;20063;-77
2022/04/05 00:40:15;;;;;;;6.22;4.15;;;7.80;87.90;;;;;;5076278;28;20029;-77
2022/04/05 00:42:41;;;;;;;7.83;3.67;;;7.80;87.00;;;;;;5058652;28;20090;-77
2022/04/05 00:45:08;;;;;;;5.03;3.53;;;7.80;86.70;;;;;;5058620;28;20025;-77
2022/04/05 00:47:34;;;;;;;10.23;3.97;;;7.80;86.60;;;;;;5057883;28;20059;-77
2022/04/05 00:50:01;;;;;;;6.97;3.80;;;7.80;86.70;;;;;;5058488;28;20056;-77
2022/04/05 00:52:27;;;;;;;7.20;4.13;;;7.80;86.80;;;;;;5075641;28;20017;-77
2022/04/05 00:54:55;;;;;;;6.72;4.10;;;7.70;86.80;;;;;;5058575;28;20123;-77
2022/04/05 00:57:21;;;;;;;6.90;3.70;;;7.70;87.10;;;;;;5057537;28;20024;-78
2022/04/05 00:59:49;;;;;;;7.15;3.92;;;7.80;87.50;;;;;;5057986;28;20028;-77
2022/04/05 01:02:18;;;;;;;12.00;4.17;;;7.70;87.80;;;;;;5058269;28;20029;-77
2022/04/05 01:04:44;;;;;;;6.90;3.87;;;7.70;87.50;;;;;;5058130;28;20025;-77
2022/04/05 01:07:16;;;;;;;5.60;3.80;;;7.70;87.60;;;;;;5058224;28;20112;-77
2022/04/05 01:09:43;;;;;;;6.87;3.63;;;7.70;87.30;;;;;;5075959;28;20458;-77
2022/04/05 01:12:10;;;;;;;5.60;3.60;;;7.70;87.20;;;;;;5057906;28;20025;-77
2022/04/05 01:14:38;;;;;;;7.53;3.80;;;7.60;87.40;;;;;;5057154;28;20070;-77
2022/04/05 01:17:05;;;;;;;7.97;3.97;;;7.60;88.00;;;;;;5057687;28;20024;-77
2022/04/05 01:19:31;;;;;;;5.90;3.63;;;7.60;88.20;;;;;;5075186;28;20016;-77
2022/04/05 01:21:57;;;;;;;6.83;4.10;;;7.60;88.60;;;;;;5057440;28;20032;-77
2022/04/05 01:24:23;;;;;;;5.55;3.80;;;7.60;88.90;;;;;;5057133;28;20028;-77
2022/04/05 01:26:54;;;;;;;8.17;3.90;;;7.60;89.30;;;;;;5057947;28;20021;-77
2022/04/05 01:29:21;;;;;;;6.97;4.20;;;7.60;90.00;;;;;;5075055;28;20032;-78
2022/04/05 01:31:53;;;;;;;6.57;3.97;;;7.60;90.20;;;;;;5057720;28;20016;-77
2022/04/05 01:34:22;;;;;;;7.18;3.85;;;7.50;90.50;;;;;;5057427;28;20027;-77
2022/04/05 01:36:56;;;;;;;7.40;4.27;;;7.50;90.80;;;;;;5057687;28;20373;-77
2022/04/05 01:39:24;;;;;;;8.57;4.30;;;7.50;91.20;;;;;;5074708;28;20063;-78
2022/04/05 01:42:17;;;;;;;7.50;4.13;;;7.50;91.70;;;;;;5057595;28;20024;-77
2022/04/05 01:44:43;;;;;;;9.97;4.40;;;7.40;92.10;;;;;;5054300;28;20028;-77
2022/04/05 01:47:14;;;;;;;8.40;4.20;;;7.40;92.30;;;;;;5057699;28;20025;-77
2022/04/05 01:49:42;;;;;;;5.78;3.72;;;7.40;92.40;;;;;;5056908;28;20369;-77
2022/04/05 01:52:09;;;;;;;6.87;4.10;;;7.40;92.40;;;;;;5057530;28;20028;-77
2022/04/05 01:54:35;;;;;;;7.50;4.17;;;7.40;92.50;;;;;;5056655;28;20025;-77
2022/04/05 01:57:01;;;;;;;9.93;4.30;;;7.40;92.30;;;;;;5075021;28;20086;-77
2022/04/05 01:59:29;;;;;;;10.03;4.23;;;7.40;92.20;;;;;;5056658;28;20467;-78
2022/04/05 02:01:56;;;;;;;7.17;4.13;;;7.40;92.10;;;;;;5057175;28;20028;-77
2022/04/05 02:04:21;;;;;;;8.97;3.90;;;7.40;92.10;;;;;;5056833;28;20044;-78
2022/04/05 02:06:47;;;;;;;8.13;4.27;;;7.40;92.40;;;;;;5074951;28;20020;-77
2022/04/05 02:09:14;;;;;;;6.63;3.93;;;7.40;92.30;;;;;;5074868;28;20020;-77
2022/04/05 02:11:41;;;;;;;6.17;4.13;;;7.40;92.50;;;;;;5073370;28;20033;-77
2022/04/05 02:14:07;;;;;;;8.93;4.13;;;7.40;92.40;;;;;;5074577;28;20020;-77
2022/04/05 02:16:33;;;;;;;5.63;3.67;;;7.40;92.60;;;;;;5056229;28;20090;-77
2022/04/05 02:18:59;;;;;;;6.07;4.00;;;7.40;92.40;;;;;;5074257;28;20024;-77
2022/04/05 02:21:25;;;;;;;6.83;3.80;;;7.40;92.70;;;;;;5056100;28;20031;-77
2022/04/05 02:23:51;;;;;;;6.10;3.73;;;7.40;93.10;;;;;;5056456;28;20049;-77
2022/04/05 02:26:16;;;;;;;7.77;3.90;;;7.40;93.40;;;;;;5074401;28;20032;-77
2022/04/05 02:28:43;;;;;;;6.37;3.90;;;7.30;94.30;;;;;;5073911;28;20154;-76
2022/04/05 02:31:09;;;;;;;9.07;4.20;;;7.30;95.10;;;;;;5056315;28;20051;-77
2022/04/05 02:33:35;;;;;;;6.80;4.20;;;7.30;95.50;;;;;;5055816;28;20026;-77
2022/04/05 02:36:00;;;;;;;7.00;3.80;;;7.30;96.00;;;;;;5056568;28;20030;-77
2022/04/05 02:38:26;;;;;;;5.83;3.90;;;7.30;96.20;;;;;;5056181;28;20361;-78
2022/04/05 02:40:53;;;;;;;6.73;4.20;;;7.20;96.20;;;;;;5056286;28;20025;-77
2022/04/05 02:43:18;;;;;;;7.60;4.10;;;7.20;96.20;;;;;;5056454;28;20020;-77
2022/04/05 02:45:44;;;;;;;6.33;4.20;;;7.20;96.10;;;;;;5055845;28;20020;-76
2022/04/05 02:48:10;;;;;;;8.23;4.33;;;7.30;96.50;;;;;;5055981;28;20032;-76
2022/04/05 02:50:35;;;;;;;6.63;4.00;;;7.20;96.70;;;;;;5055929;28;20024;-76
2022/04/05 02:53:01;;;;;;;6.30;4.50;;;7.30;97.10;;;;;;5056458;28;20464;-76
2022/04/05 02:55:27;;;;;;;6.97;3.90;;;7.20;98.00;;;;;;5072949;28;20032;-76
2022/04/05 02:57:52;;;;;;;7.10;4.00;;;7.20;98.90;;;;;;5056143;28;20112;-76
2022/04/05 03:00:19;;;;;;;8.13;4.10;;;7.10;99.10;;;;;;5055995;28;20020;-76
2022/04/05 03:02:45;;;;;;;6.13;3.80;;;7.10;99.00;;;;;;5055372;28;20082;-76
2022/04/05 03:05:13;;;;;;;8.63;4.77;;;7.10;99.30;;;;;;5073413;28;20457;-76
2022/04/05 03:07:39;;;;;;;7.90;4.50;;;7.10;99.10;;;;;;5055304;28;20024;-76
2022/04/05 03:10:07;;;;;;;7.87;4.37;;;7.00;99.80;;;;;;5073838;28;20025;-79
2022/04/05 03:12:35;;;;;;;6.17;4.07;;;7.00;99.90;;;;;;5055394;28;20016;-79
2022/04/05 03:15:01;;;;;;;9.57;4.23;;;7.00;99.90;;;;;;5055633;28;20457;-79
2022/04/05 03:17:27;;;;;;;7.67;4.33;;;7.00;99.90;;;;;;5055210;28;20036;-80
2022/04/05 03:19:53;;;;;;;7.80;3.93;;;6.90;99.90;;;;;;5073513;28;20020;-79
2022/04/05 03:22:18;;;;;;;8.10;4.30;;;6.90;99.90;;;;;;5055632;28;20076;-79
2022/04/05 03:24:44;;;;;;;7.40;4.03;;;6.80;99.90;;;;;;5055025;28;20154;-79
2022/04/05 03:27:10;;;;;;;8.47;3.97;;;6.80;99.90;;;;;;5073325;28;20381;-79
2022/04/05 03:29:35;;;;;;;6.73;4.10;;;6.70;99.90;;;;;;5072841;28;20104;-79
2022/04/05 03:32:02;;;;;;;7.07;4.73;;;6.70;99.90;;;;;;5055425;28;20025;-79
2022/04/05 03:34:28;;;;;;;9.17;4.77;;;6.70;99.90;;;;;;5054888;28;20031;-80
2022/04/05 03:36:54;;;;;;;7.60;4.63;;;6.60;99.90;;;;;;5073246;28;20028;-78
2022/04/05 03:39:20;;;;;;;7.33;4.20;;;6.60;99.90;;;;;;5055493;28;20028;-79
2022/04/05 03:41:46;;;;;;;7.80;5.03;;;6.50;99.90;;;;;;5072975;28;20490;-79
2022/04/05 03:44:12;;;;;;;10.07;4.40;;;6.50;99.90;;;;;;5073780;28;20035;-79
2022/04/05 03:46:38;;;;;;;8.73;4.77;;;6.40;99.90;;;;;;5072779;28;20474;-79
2022/04/05 03:49:04;;;;;;;7.30;4.87;;;6.40;99.90;;;;;;5073262;28;20042;-79
2022/04/05 03:51:30;;;;;;;9.77;4.60;;;6.30;99.90;;;;;;5054856;28;20112;-79
2022/04/05 03:53:56;;;;;;;8.10;4.87;;;6.30;99.90;;;;;;5055433;28;20135;-79
2022/04/05 03:56:23;;;;;;;6.77;4.50;;;6.30;99.90;;;;;;5073226;28;20036;-79
2022/04/05 03:58:49;;;;;;;10.43;5.53;;;6.20;99.90;;;;;;5055068;28;20028;-79
2022/04/05 04:01:15;;;;;;;7.93;4.97;;;6.20;99.90;;;;;;5055533;28;20033;-78
2022/04/05 04:03:41;;;;;;;6.43;4.43;;;6.10;99.90;;;;;;5072737;28;20016;-78
2022/04/05 04:06:06;;;;;;;9.63;5.40;;;6.10;99.90;;;;;;5055357;28;20017;-78
2022/04/05 04:08:32;;;;;;;9.53;5.07;;;6.00;99.90;;;;;;5054458;28;20065;-79
2022/04/05 04:10:58;;;;;;;7.57;4.83;;;6.00;99.90;;;;;;5073002;28;20043;-79
2022/04/05 04:13:24;;;;;;;6.80;4.77;;;6.00;99.90;;;;;;5055264;28;20453;-78
2022/04/05 04:15:50;;;;;;;9.33;4.73;;;6.00;99.90;;;;;;5072403;28;20043;-79
2022/04/05 04:18:16;;;;;;;11.33;5.00;;;6.00;99.90;;;;;;5055070;28;20024;-79
2022/04/05 04:20:44;;;;;;;10.03;5.20;;;5.90;99.90;;;;;;5054659;28;20017;-79
2022/04/05 04:23:12;;;;;;;8.50;5.33;;;5.90;99.90;;;;;;5051720;28;20136;-79
2022/04/05 04:25:38;;;;;;;8.63;4.43;;;5.90;99.90;;;;;;5051183;28;20060;-79
2022/04/05 04:28:05;;;;;;;9.63;5.20;;;5.90;99.90;;;;;;5051200;28;20500;-78
2022/04/05 04:30:35;;;;;;;8.50;5.00;;;5.90;99.90;;;;;;5050878;28;20108;-79
2022/04/05 04:33:02;;;;;;;9.47;4.70;;;5.90;99.90;;;;;;5051623;28;20111;-78
2022/04/05 04:35:28;;;;;;;12.40;5.43;;;5.90;99.90;;;;;;5055780;28;20031;-78
2022/04/05 04:37:54;;;;;;;10.53;4.83;;;5.80;99.90;;;;;;5055766;28;20025;-79
2022/04/05 04:40:20;;;;;;;10.20;5.17;;;5.90;99.90;;;;;;5055044;28;20029;-79
2022/04/05 04:42:46;;;;;;;9.33;4.80;;;5.90;99.90;;;;;;5054521;28;20446;-78
2022/04/05 04:45:12;;;;;;;10.27;5.43;;;5.90;99.90;;;;;;5056392;28;20021;-79
2022/04/05 04:47:38;;;;;;;9.90;5.23;;;5.90;99.90;;;;;;5054665;28;20025;-79
2022/04/05 04:50:05;;;;;;;7.67;4.37;;;5.90;99.90;;;;;;5054972;28;20021;-79
2022/04/05 04:52:31;;;;;;;9.77;4.97;;;5.90;99.90;;;;;;5055656;28;20021;-80
2022/04/05 04:54:56;;;;;;;9.37;5.00;;;5.90;99.90;;;;;;5054971;28;20025;-78
2022/04/05 04:57:23;;;;;;;8.67;4.80;;;5.90;99.90;;;;;;5056036;28;20330;-79
2022/04/05 04:59:49;;;;;;;10.03;5.27;;;5.90;99.90;;;;;;5055589;28;20017;-79
2022/04/05 05:02:15;;;;;;;9.13;4.83;;;5.90;99.90;;;;;;5054824;28;20028;-79
2022/04/05 05:04:41;;;;;;;9.07;4.80;;;5.90;99.90;;;;;;5055314;28;20113;-79
2022/04/05 05:07:07;;;;;;;7.60;4.83;;;5.90;99.90;;;;;;5055800;28;20532;-78
2022/04/05 05:09:33;;;;;;;9.07;5.00;;;5.90;99.90;;;;;;5055361;28;20021;-79
2022/04/05 05:12:00;;;;;;;9.53;5.20;;;5.90;99.90;;;;;;5055804;28;20060;-79
2022/04/05 05:14:27;;;;;;;11.13;5.30;;;5.90;99.90;;;;;;5054488;28;20025;-79
2022/04/05 05:16:53;;;;;;;9.07;4.97;;;5.90;99.90;;;;;;5053847;28;20067;-79
2022/04/05 05:19:22;;;;;;;8.93;5.00;;;5.90;99.90;;;;;;5054294;28;20021;-79
2022/04/05 05:21:48;;;;;;;9.40;5.33;;;5.90;99.90;;;;;;5055134;28;20024;-79
2022/04/05 05:24:14;;;;;;;7.80;4.90;;;5.90;99.90;;;;;;5053969;28;20535;-79
2022/04/05 05:26:39;;;;;;;10.67;5.00;;;5.90;99.90;;;;;;5053841;28;20074;-79
2022/04/05 05:29:05;;;;;;;9.90;4.80;;;5.90;99.90;;;;;;5054090;28;20059;-79
2022/04/05 05:31:31;;;;;;;9.93;5.37;;;5.90;99.90;;;;;;5054123;28;20070;-79
2022/04/05 05:33:57;;;;;;;10.33;5.33;;;5.90;99.90;;;;;;5053539;28;20025;-79
2022/04/05 05:36:22;;;;;;;9.17;4.97;;;5.90;99.90;;;;;;5054082;28;20036;-79
2022/04/05 05:38:49;;;;;;;14.00;4.70;;;5.90;99.90;;;;;;5053228;28;20462;-79
2022/04/05 05:41:15;;;;;;;10.53;5.40;;;5.90;99.90;;;;;;5054914;28;20386;-78
2022/04/05 05:43:45;;;;;;;10.43;5.17;;;5.80;99.90;;;;;;5053418;28;20025;-79
2022/04/05 05:46:11;;;;;;;7.97;4.93;;;5.80;99.90;;;;;;5052713;28;20017;-78
2022/04/05 05:48:37;;;;;;;9.83;5.83;;;5.80;99.90;;;;;;5054365;28;20020;-79
2022/04/05 05:51:03;;;;;;;10.80;4.80;;;5.90;99.90;;;;;;5053654;28;20511;-79
2022/04/05 05:53:28;;;;;;;10.83;4.80;;;5.90;99.90;;;;;;5054811;28;20071;-79
2022/04/05 05:55:54;;;;;;;8.63;5.20;;;5.80;99.90;;;;;;5053199;28;20089;-79
2022/04/05 05:58:20;;;;;;;10.20;5.30;;;5.90;99.90;;;;;;5054814;28;20151;-78
2022/04/05 06:00:45;;;;;;;9.57;5.47;;;5.90;99.90;;;;;;5052824;28;20365;-79
2022/04/05 06:03:11;;;;;;;9.23;5.30;;;5.90;99.90;;;;;;5053637;28;20032;-78
2022/04/05 06:05:37;;;;;;;12.97;5.17;;;5.90;99.90;;;;;;5054092;28;20535;-80
2022/04/05 06:08:04;;;;;;;10.23;5.13;;;5.90;99.90;;;;;;5052921;28;20067;-78
2022/04/05 06:10:30;;;;;;;11.00;5.30;;;5.90;99.90;;;;;;5053260;28;20124;-78
2022/04/05 06:12:59;;;;;;;8.43;5.00;;;5.90;99.90;;;;;;5053798;28;20039;-78
2022/04/05 06:15:26;;;;;;;11.70;4.83;;;5.90;99.90;;;;;;5063967;28;20025;-79
2022/04/05 06:17:52;;;;;;;9.70;5.50;;;5.90;99.90;;;;;;5052472;28;20404;-78
2022/04/05 06:20:21;;;;;;;7.77;5.30;;;5.90;99.90;;;;;;5053946;28;20029;-78
2022/04/05 06:22:49;;;;;;;9.63;4.70;;;5.90;99.90;;;;;;5051974;28;20497;-78
2022/04/05 06:25:26;;;;;;;12.50;5.10;;;6.00;99.90;;;;;;5049853;28;20029;-78
2022/04/05 06:27:56;;;;;;;10.23;5.23;;;6.00;99.90;;;;;;5051908;28;20028;-78
2022/04/05 06:30:22;;;;;;;10.30;4.93;;;6.00;99.90;;;;;;5052681;28;20021;-78
2022/04/05 06:32:50;;;;;;;9.13;5.00;;;6.00;99.90;;;;;;5051926;28;20111;-79
2022/04/05 06:35:16;;;;;;;9.47;5.17;;;6.00;99.90;;;;;;5052541;28;20071;-78
2022/04/05 06:37:44;;;;;;;11.43;5.60;;;6.00;99.90;;;;;;5046403;28;20056;-78
2022/04/05 06:40:13;;;;;;;7.90;5.03;;;6.00;99.90;;;;;;5061921;28;20107;-78
2022/04/05 06:42:43;;;;;;;9.80;4.73;;;6.10;99.90;;;;;;5066962;28;20021;-78
2022/04/05 06:45:14;;;;;;;9.43;4.60;;;6.10;99.90;;;;;;5053618;28;20056;-78
2022/04/05 06:47:40;;;;;;;10.27;5.47;;;6.10;99.90;;;;;;5062991;28;20021;-78
2022/04/05 06:50:08;;;;;;;9.33;4.97;;;6.20;99.90;;;;;;5059982;28;20060;-78
2022/04/05 06:52:37;;;;;;;8.70;4.70;;;6.10;99.90;;;;;;5054925;28;20036;-78
2022/04/05 06:55:03;;;;;;;9.60;5.10;;;6.20;99.90;;;;;;5058510;28;20036;-78
2022/04/05 06:57:29;;;;;;;10.67;5.00;;;6.20;99.90;;;;;;5064443;28;20074;-78
2022/04/05 06:59:55;;;;;;;10.00;5.20;;;6.20;99.90;;;;;;5058949;28;20028;-78
2022/04/05 07:02:20;;;;;;;8.60;4.20;;;6.30;99.90;;;;;;5056345;28;20374;-78
2022/04/05 07:04:46;;;;;;;10.40;5.13;;;6.40;99.90;;;;;;5064603;28;20039;-78
2022/04/05 07:07:12;;;;;;;11.87;4.63;;;6.50;99.90;;;;;;5053441;28;20473;-78
2022/04/05 07:09:38;;;;;;;8.27;4.77;;;6.50;99.90;;;;;;5061888;28;20116;-78
2022/04/05 07:12:04;;;;;;;11.47;4.70;;;6.60;99.90;;;;;;5060262;28;20028;-78
2022/04/05 07:14:29;;;;;;;6.67;4.60;;;6.60;99.90;;;;;;5061940;28;20029;-78
2022/04/05 07:16:55;;;;;;;7.90;4.73;;;6.60;99.90;;;;;;5065950;28;20055;-77
2022/04/05 07:19:20;;;;;;;10.73;4.67;;;6.60;99.90;;;;;;5054638;28;20369;-78
2022/04/05 07:21:46;;;;;;;8.00;5.00;;;6.60;99.90;;;;;;5060408;28;20025;-78
2022/04/05 07:24:12;;;;;;;10.40;5.00;;;6.60;99.90;;;;;;5080552;28;20096;-78
2022/04/05 07:26:37;;;;;;;9.87;5.20;;;6.60;99.90;;;;;;5075475;28;20132;-78
2022/04/05 07:29:03;;;;;;;11.40;4.67;;;6.60;99.90;;;;;;5068264;28;20024;-78
2022/04/05 07:31:29;;;;;;;10.37;5.13;;;6.60;99.90;;;;;;5069650;28;20017;-78
2022/04/05 07:33:54;;;;;;;10.30;5.10;;;6.60;99.90;;;;;;5060628;28;20024;-78
2022/04/05 07:36:20;;;;;;;9.97;5.30;;;6.60;99.90;;;;;;5059329;28;20025;-78
2022/04/05 07:38:45;;;;;;;9.83;4.90;;;6.60;99.90;;;;;;5067324;28;20504;-78
2022/04/05 07:41:11;;;;;;;10.90;4.97;;;6.60;99.90;;;;;;5072959;28;20063;-78
2022/04/05 07:43:36;;;;;;;9.97;5.00;;;6.60;99.90;;;;;;5077432;28;20039;-78
2022/04/05 07:46:03;;;;;;;7.70;4.70;;;6.60;99.90;;;;;;5061136;28;20121;-78
2022/04/05 07:48:30;;;;;;;8.93;4.77;;;6.60;99.90;;;;;;5065584;28;20037;-78
2022/04/05 07:50:56;;;;;;;9.07;4.73;;;6.60;99.90;;;;;;5073287;28;20032;-78
2022/04/05 07:53:22;;;;;;;10.40;4.90;;;6.60;99.90;;;;;;5067059;28;20024;-78
2022/04/05 07:55:48;;;;;;;9.10;4.80;;;6.60;99.90;;;;;;5059618;28;20036;-78
2022/04/05 07:58:14;;;;;;;9.80;4.70;;;6.60;99.90;;;;;;5078571;28;20027;-78
2022/04/05 08:00:40;;;;;;;7.10;4.67;;;6.60;99.90;;;;;;5067227;28;20028;-78
2022/04/05 08:03:06;;;;;;;7.83;4.53;;;6.60;99.90;;;;;;5055310;28;20488;-78
2022/04/05 08:05:31;;;;;;;11.67;4.53;;;6.60;99.90;;;;;;5084107;28;20501;-79
2022/04/05 08:07:57;;;;;;;7.97;4.87;;;6.60;99.90;;;;;;5060954;28;20423;-78
2022/04/05 08:10:23;;;;;;;8.83;4.77;;;6.60;99.90;;;;;;5062260;28;20035;-79
2022/04/05 08:12:49;;;;;;;9.20;4.67;;;6.60;99.90;;;;;;5058518;28;20462;-78
2022/04/05 08:15:20;;;;;;;9.47;4.77;;;6.70;99.90;;;;;;5076686;28;20031;-78
2022/04/05 08:17:47;;;;;;;9.03;5.23;;;6.70;99.90;;;;;;5075846;28;20052;-77
2022/04/05 08:20:13;;;;;;;7.80;4.17;;;6.70;99.90;;;;;;5058750;28;20111;-78
2022/04/05 08:22:39;;;;;;;10.90;5.10;;;6.70;99.90;;;;;;5076268;28;20430;-78
2022/04/05 08:25:14;;;;;;;9.00;4.80;;;6.80;99.90;;;;;;5058290;28;20060;-78
2022/04/05 08:27:44;;;;;;;10.37;5.50;;;6.80;99.90;;;;;;5058841;28;20511;-78
2022/04/05 08:30:15;;;;;;;10.27;4.70;;;6.90;99.90;;;;;;5076933;28;20020;-78
2022/04/05 08:32:42;;;;;;;7.17;4.83;;;6.90;99.90;;;;;;5077462;28;20028;-79
2022/04/05 08:35:13;;;;;;;10.17;4.93;;;6.90;99.90;;;;;;5058582;28;20028;-78
2022/04/05 08:37:40;;;;;;;9.13;4.72;;;6.90;99.90;;;;;;5058567;28;20548;-78
2022/04/05 08:40:07;;;;;;;10.77;5.20;;;7.00;99.90;;;;;;5057484;28;20032;-78
2022/04/05 08:42:37;;;;;;;9.23;4.57;;;7.00;99.90;;;;;;5075870;28;20017;-78
2022/04/05 08:45:10;;;;;;;8.87;4.77;;;7.00;99.90;;;;;;5074938;28;20135;-78
2022/04/05 08:47:41;;;;;;;7.53;4.63;;;7.10;99.90;;;;;;5057049;28;20031;-78
2022/04/05 08:50:10;;;;;;;8.65;4.72;;;7.10;99.90;;;;;;5055092;28;20158;-78
2022/04/05 08:52:54;;;;;;;;;;;;;;;;;;;;;
2022/04/05 08:55:30;;;;;;;8.73;5.03;;;7.10;99.90;;;;;;5075682;28;20027;-78
2022/04/05 08:58:09;;;;;;;9.67;4.70;;;7.20;99.90;;;;;;5057249;28;20465;-78
2022/04/05 09:00:38;;;;;;;7.37;4.63;;;7.20;99.90;;;;;;5057725;28;20032;-78
2022/04/05 09:03:08;;;;;;;7.30;4.20;;;7.20;99.90;;;;;;5056453;28;20025;-78
2022/04/05 09:05:38;;;;;;;8.10;4.00;;;7.20;99.90;;;;;;5057032;28;20076;-78
2022/04/05 09:08:33;;;;;;;8.10;4.50;;;7.20;99.90;;;;;;5055064;28;20335;-78
2022/04/05 09:11:04;;;;;;;7.23;4.50;;;7.20;99.90;;;;;;5056370;28;20033;-78
2022/04/05 09:13:31;;;;;;;10.57;4.57;;;7.30;99.90;;;;;;5057320;28;20033;-78
2022/04/05 09:15:59;;;;;;;8.23;4.27;;;7.40;99.90;;;;;;5057090;28;20040;-78
2022/04/05 09:18:38;;;;;;;11.17;4.83;;;7.40;99.90;;;;;;5075532;28;20441;-78
2022/04/05 09:21:13;;;;;;;8.03;4.40;;;7.40;99.90;;;;;;5057029;28;20338;-78
2022/04/05 09:23:41;;;;;;;6.53;4.33;;;7.40;99.90;;;;;;5057319;28;20040;-78
2022/04/05 09:26:15;;;;;;;10.40;5.10;;;7.40;99.90;;;;;;5056833;28;20020;-78
2022/04/05 09:28:43;;;;;;;10.13;4.97;;;7.50;99.90;;;;;;5057494;28;20020;-78
2022/04/05 09:31:15;;;;;;;9.00;4.50;;;7.50;99.90;;;;;;5057163;28;20031;-78
2022/04/05 09:34:13;;;;;;;8.43;4.25;;;7.60;99.90;;;;;;5057295;28;20454;-78
2022/04/05 09:36:48;;;;;;;9.33;4.70;;;7.60;99.90;;;;;;5056876;28;20039;-78
2022/04/05 09:39:19;;;;;;;7.33;4.10;;;7.60;99.90;;;;;;5056006;28;20036;-78
2022/04/05 09:41:47;;;;;;;6.82;3.40;;;7.60;99.90;;;;;;5057402;28;20021;-78
2022/04/05 09:44:27;;;;;;;7.87;4.20;;;7.60;99.90;;;;;;5056382;28;20058;-78
2022/04/05 09:47:18;;;;;;;9.37;4.57;;;7.70;99.90;;;;;;5074271;28;20479;-79
2022/04/05 09:50:01;;;;;;;8.60;4.30;;;7.70;99.90;;;;;;5055672;28;20025;-78
2022/04/05 09:52:32;;;;;;;6.32;3.72;;;7.70;99.90;;;;;;5055888;28;20451;-78
2022/04/05 09:55:15;;;;;;;7.55;4.65;;;7.80;99.90;;;;;;5053820;28;20016;-78
2022/04/05 09:57:42;;;;;;;11.60;3.95;;;7.80;99.90;;;;;;5050538;28;20020;-78
2022/04/05 10:00:19;;;;;;;8.45;4.85;;;7.90;99.90;;;;;;5073550;28;20029;-78
2022/04/05 10:03:03;;;;;;;6.70;4.13;;;7.90;99.90;;;;;;5055264;28;20020;-78
2022/04/05 10:05:30;;;;;;;8.10;4.37;;;7.80;99.90;;;;;;5074656;28;20465;-78
2022/04/05 10:07:57;;;;;;;10.48;4.18;;;7.80;99.90;;;;;;5055976;28;20035;-78
2022/04/05 10:10:26;;;;;;;11.35;4.78;;;7.90;99.90;;;;;;5074484;28;20029;-78
2022/04/05 10:12:52;;;;;;;7.27;4.40;;;7.90;99.90;;;;;;5072687;28;20025;-79
2022/04/05 10:15:21;;;;;;;8.15;4.32;;;7.90;99.90;;;;;;5066530;28;20024;-78
2022/04/05 10:17:48;;;;;;;9.25;4.50;;;7.90;99.90;;;;;;5086124;28;20036;-78
2022/04/05 10:20:17;;;;;;;10.77;4.97;;;7.90;99.90;;;;;;5053228;28;20026;-79
2022/04/05 10:22:44;;;;;;;8.45;4.45;;;7.90;99.90;;;;;;5060667;28;20056;-79
2022/04/05 10:25:10;;;;;;;9.63;5.05;;;7.90;99.90;;;;;;5061700;28;20043;-79
2022/04/05 10:27:36;;;;;;;7.18;4.55;;;7.90;99.90;;;;;;5086005;28;20062;-78
2022/04/05 10:30:19;;;;;;;9.30;5.05;;;7.90;99.90;;;;;;5055684;28;20056;-78
2022/04/05 10:33:07;;;;;;;12.63;5.57;;;8.00;99.90;;;;;;5066580;28;20028;-78
2022/04/05 10:35:41;;;;;;;14.02;4.85;;;7.90;99.90;;;;;;5058974;28;20029;-78
2022/04/05 10:38:15;;;;;;;8.23;4.68;;;8.00;99.90;;;;;;5055958;28;20041;-78
2022/04/05 10:40:41;;;;;;;8.07;4.78;;;7.90;99.90;;;;;;5065850;28;20175;-78
2022/04/05 10:43:18;;;;;;;10.32;4.72;;;8.00;99.90;;;;;;5060918;28;20024;-78
2022/04/05 10:45:45;;;;;;;8.60;4.65;;;8.00;99.90;;;;;;5068263;28;20035;-78
2022/04/05 10:48:18;;;;;;;9.85;4.78;;;8.00;99.90;;;;;;5055984;28;20028;-78
2022/04/05 10:50:46;;;;;;;11.00;5.03;;;7.90;99.90;;;;;;5083465;28;20032;-78
2022/04/05 10:53:21;;;;;;;10.43;4.70;;;7.90;99.90;;;;;;5063590;28;20024;-78
2022/04/05 10:56:07;;;;;;;10.05;5.00;;;8.00;99.90;;;;;;5056287;28;20028;-78
2022/04/05 10:58:35;;;;;;;9.50;4.72;;;8.10;99.90;;;;;;5062264;28;20103;-79
2022/04/05 11:01:39;;;;;;;10.48;5.38;;;8.10;99.90;;;;;;5061969;28;20035;-79
2022/04/05 11:04:18;;;;;;;15.27;5.35;;;8.10;99.90;;;;;;5068738;28;20073;-78
2022/04/05 11:07:02;;;;;;;7.80;4.72;;;8.10;99.90;;;;;;5060085;28;20107;-78
2022/04/05 11:09:47;;;;;;;9.02;4.63;;;8.20;99.90;;;;;;5057065;28;20058;-78
2022/04/05 11:12:42;;;;;;;8.70;4.82;;;8.10;99.90;;;;;;5073218;28;20086;-79
2022/04/05 11:15:10;;;;;;;10.20;4.32;;;8.20;99.90;;;;;;5062044;28;20036;-78
2022/04/05 11:17:37;;;;;;;9.00;4.38;;;8.20;99.90;;;;;;5090049;28;20036;-78
2022/04/05 11:20:03;;;;;;;9.95;4.68;;;8.20;99.90;;;;;;5055134;28;20025;-78
2022/04/05 11:22:35;;;;;;;10.52;4.50;;;8.30;99.90;;;;;;5066379;28;20040;-78
2022/04/05 11:25:09;;;;;;;8.30;4.88;;;8.30;99.90;;;;;;5061417;28;20028;-78
2022/04/05 11:27:46;;;;;;;11.05;4.57;;;8.40;99.90;;;;;;5057819;28;20036;-78
2022/04/05 11:30:22;;;;;;;9.85;4.50;;;8.40;99.90;;;;;;5068239;28;20025;-79
2022/04/05 11:33:06;;;;;;;7.63;4.20;;;8.40;99.90;;;;;;5077924;28;20020;-78
2022/04/05 11:35:39;;;;;;;6.22;4.20;;;8.40;99.90;;;;;;5058085;28;20343;-79
2022/04/05 11:38:11;;;;;;;6.30;3.90;;;8.40;99.90;;;;;;5068165;28;20059;-78
2022/04/05 11:40:41;;;;;;;8.52;4.65;;;8.40;99.90;;;;;;5058727;28;20024;-78
2022/04/05 11:43:17;;;;;;;8.43;4.20;;;8.40;99.90;;;;;;5059574;28;20111;-78
2022/04/05 11:45:46;;;;;;;9.27;4.35;;;8.40;99.90;;;;;;5085903;28;20357;-78
2022/04/05 11:48:16;;;;;;;7.43;4.28;;;8.50;99.90;;;;;;5054832;28;20034;-79
2022/04/05 11:50:42;;;;;;;8.10;4.45;;;8.50;99.90;;;;;;5064814;28;20025;-79
2022/04/05 11:53:37;;;;;;;7.90;5.00;;;8.50;99.90;;;;;;5080516;28;20541;-78
2022/04/05 11:56:14;;;;;;;10.75;5.40;;;8.60;99.90;;;;;;5046152;28;20394;-78
2022/04/05 11:59:04;;;;;;;7.05;4.40;;;8.60;99.90;;;;;;5082991;28;20051;-78
2022/04/05 12:01:39;;;;;;;8.43;4.97;;;8.70;99.90;;;;;;5084021;28;20052;-78
2022/04/05 12:04:06;;;;;;;6.70;4.53;;;8.60;99.90;;;;;;5072510;28;20481;-79
2022/04/05 12:06:34;;;;;;;11.38;4.55;;;8.70;99.90;;;;;;5065818;28;20457;-79
2022/04/05 12:09:06;;;;;;;9.02;4.32;;;8.70;99.90;;;;;;5050668;28;20107;-79
2022/04/05 12:11:34;;;;;;;8.88;4.38;;;8.70;99.90;;;;;;5065978;28;20059;-79
2022/04/05 12:14:09;;;;;;;6.85;4.35;;;8.70;99.90;;;;;;5053994;28;20036;-78
2022/04/05 12:16:50;;;;;;;10.05;4.60;;;8.80;99.90;;;;;;5065412;28;20033;-79
2022/04/05 12:19:20;;;;;;;8.75;4.90;;;8.80;99.90;;;;;;5062970;28;20016;-78
2022/04/05 12:21:55;;;;;;;11.63;4.68;;;8.80;99.90;;;;;;5055357;28;20099;-78
2022/04/05 12:24:21;;;;;;;9.50;4.90;;;8.80;99.90;;;;;;5057581;28;20484;-78
2022/04/05 12:26:47;;;;;;;8.43;4.95;;;8.80;99.90;;;;;;5053505;28;20119;-78
2022/04/05 12:29:13;;;;;;;9.07;4.82;;;8.80;99.90;;;;;;5051170;28;20033;-78
2022/04/05 12:31:39;;;;;;;7.10;4.45;;;8.90;99.90;;;;;;5065986;28;20466;-78
2022/04/05 12:34:13;;;;;;;7.45;4.20;;;8.90;99.90;;;;;;5067263;28;20115;-78
2022/04/05 12:36:43;;;;;;;9.13;4.65;;;8.90;99.90;;;;;;5058262;28;20020;-79
2022/04/05 12:39:43;;;;;;;7.55;4.32;;;8.90;99.90;;;;;;5059599;28;20035;-78
2022/04/05 12:42:09;;;;;;;7.18;4.60;;;8.90;99.90;;;;;;5020857;28;20118;-78
2022/04/05 12:44:46;;;;;;;8.38;4.40;;;9.00;99.90;;;;;;5081252;28;20028;-78
2022/04/05 12:47:20;;;;;;;9.00;4.30;;;9.10;99.90;;;;;;5077596;28;20220;-78
2022/04/05 12:49:52;;;;;;;9.50;4.60;;;9.20;99.90;;;;;;5067446;28;20028;-78
2022/04/05 12:52:24;;;;;;;7.65;4.10;;;9.20;99.90;;;;;;5039347;28;20021;-78
2022/04/05 12:54:50;;;;;;;5.88;3.95;;;9.20;99.90;;;;;;5081578;28;20025;-78
2022/04/05 12:57:24;;;;;;;7.10;3.88;;;9.20;99.90;;;;;;5084323;28;20039;-78
2022/04/05 12:59:52;;;;;;;6.43;4.20;;;9.20;99.90;;;;;;5058303;28;20024;-78
2022/04/05 13:02:25;;;;;;;7.82;3.90;;;9.20;99.90;;;;;;5088895;28;20017;-78
2022/04/05 13:06:19;;;;;;;8.05;4.20;;;9.30;99.90;;;;;;5081213;28;20020;-78